createdAt,value
2023-04-18T00:00:21.460Z,60.73
2023-04-18T00:01:21.513Z,62.78
2023-04-18T00:02:21.701Z,62.69
2023-04-18T00:03:21.868Z,62.51
2023-04-18T00:04:22.179Z,59.96
2023-04-18T00:05:21.920Z,60.05
2023-04-18T00:06:21.813Z,62.62
2023-04-18T00:07:21.879Z,62.74
2023-04-18T00:08:21.946Z,60.09
2023-04-18T00:09:22.067Z,62.08
2023-04-18T00:10:22.066Z,62.20
2023-04-18T00:11:22.134Z,60.70
2023-04-18T00:12:22.199Z,59.52
2023-04-18T00:13:22.262Z,61.06
2023-04-18T00:14:22.351Z,62.15
2023-04-18T00:15:22.400Z,59.18
2023-04-18T00:16:22.477Z,63.26
2023-04-18T00:17:22.534Z,59.91
2023-04-18T00:18:22.556Z,60.81
2023-04-18T00:19:22.642Z,58.90
2023-04-18T00:20:22.682Z,58.76
2023-04-18T00:21:22.748Z,58.67
2023-04-18T00:22:22.820Z,62.33
2023-04-18T00:23:22.860Z,61.24
2023-04-18T00:24:22.928Z,58.81
2023-04-18T00:25:22.989Z,61.53
2023-04-18T00:26:23.032Z,63.54
2023-04-18T00:27:23.103Z,60.09
2023-04-18T00:28:23.174Z,58.74
2023-04-18T00:29:23.258Z,59.68
2023-04-18T00:30:23.319Z,59.54
2023-04-18T00:31:23.411Z,60.62
2023-04-18T00:32:23.499Z,59.94
2023-04-18T00:33:23.492Z,59.75
2023-04-18T00:34:23.607Z,63.36
2023-04-18T00:35:23.672Z,61.68
2023-04-18T00:36:23.688Z,62.09
2023-04-18T00:37:23.736Z,61.61
2023-04-18T00:38:23.835Z,61.85
2023-04-18T00:39:23.876Z,58.54
2023-04-18T00:40:23.994Z,58.59
2023-04-18T00:41:23.975Z,58.73
2023-04-18T00:42:24.067Z,59.51
2023-04-18T00:43:24.159Z,58.82
2023-04-18T00:44:24.197Z,58.99
2023-04-18T00:45:24.262Z,60.02
2023-04-18T00:46:24.368Z,58.55
2023-04-18T00:47:24.399Z,58.12
2023-04-18T00:48:24.467Z,58.81
2023-04-18T00:49:24.512Z,59.43
2023-04-18T00:50:24.593Z,61.54
2023-04-18T00:51:24.632Z,58.49
2023-04-18T00:52:24.709Z,58.61
2023-04-18T00:53:24.754Z,56.29
2023-04-18T00:54:24.924Z,58.45
2023-04-18T00:55:24.960Z,57.72
2023-04-18T00:56:24.934Z,60.68
2023-04-18T00:57:25.005Z,59.37
2023-04-18T00:58:25.066Z,57.65
2023-04-18T00:59:25.144Z,59.47
2023-04-18T01:00:25.217Z,56.02
2023-04-18T01:01:25.288Z,60.11
2023-04-18T01:02:25.374Z,57.86
2023-04-18T01:03:25.546Z,55.55
2023-04-18T01:04:25.531Z,57.26
2023-04-18T01:05:25.505Z,57.42
2023-04-18T01:06:25.544Z,60.33
2023-04-18T01:07:25.649Z,59.35
2023-04-18T01:08:25.653Z,58.35
2023-04-18T01:09:25.733Z,58.20
2023-04-18T01:10:25.805Z,56.86
2023-04-18T01:11:25.966Z,58.33
2023-04-18T01:12:25.900Z,57.96
2023-04-18T01:13:26.018Z,57.66
2023-04-18T01:14:26.440Z,56.49
2023-04-18T01:15:26.061Z,58.30
2023-04-18T01:16:26.160Z,57.24
2023-04-18T01:17:26.245Z,59.52
2023-04-18T01:18:26.255Z,57.92
2023-04-18T01:19:26.290Z,58.40
2023-04-18T01:20:26.349Z,58.94
2023-04-18T01:21:26.436Z,59.73
2023-04-18T01:22:26.443Z,57.27
2023-04-18T01:23:26.496Z,57.61
2023-04-18T01:24:26.582Z,57.67
2023-04-18T01:25:26.645Z,56.43
2023-04-18T01:26:26.709Z,57.36
2023-04-18T01:27:26.764Z,55.61
2023-04-18T01:28:26.803Z,56.82
2023-04-18T01:29:26.872Z,60.08
2023-04-18T01:30:26.947Z,56.18
2023-04-18T01:31:27.027Z,58.18
2023-04-18T01:32:27.036Z,56.89
2023-04-18T01:33:27.062Z,55.85
2023-04-18T01:34:27.121Z,57.52
2023-04-18T01:35:27.242Z,56.84
2023-04-18T01:36:27.201Z,59.38
2023-04-18T01:37:27.266Z,60.32
2023-04-18T01:38:27.341Z,58.29
2023-04-18T01:39:27.371Z,57.15
2023-04-18T01:40:27.434Z,55.80
2023-04-18T01:41:27.508Z,57.18
2023-04-18T01:42:27.533Z,56.55
2023-04-18T01:43:27.599Z,57.13
2023-04-18T01:44:27.645Z,57.89
2023-04-18T01:45:27.678Z,56.94
2023-04-18T01:46:28.501Z,58.25
2023-04-18T01:47:27.795Z,56.48
2023-04-18T01:48:27.818Z,56.46
2023-04-18T01:49:27.895Z,57.49
2023-04-18T01:50:27.912Z,58.45
2023-04-18T01:51:27.984Z,55.82
2023-04-18T01:52:27.997Z,57.38
2023-04-18T01:53:28.092Z,55.23
2023-04-18T01:54:28.108Z,59.39
2023-04-18T01:55:28.161Z,56.40
2023-04-18T01:56:28.228Z,57.47
2023-04-18T01:57:28.245Z,56.00
2023-04-18T01:58:28.336Z,54.99
2023-04-18T01:59:28.340Z,59.07
2023-04-18T02:00:28.470Z,58.05
2023-04-18T02:01:28.492Z,57.75
2023-04-18T02:02:28.646Z,55.89
2023-04-18T02:03:28.720Z,57.60
2023-04-18T02:04:28.600Z,58.60
2023-04-18T02:05:28.626Z,57.99
2023-04-18T02:06:28.693Z,56.18
2023-04-18T02:07:28.731Z,57.66
2023-04-18T02:08:28.775Z,56.98
2023-04-18T02:09:28.853Z,58.48
2023-04-18T02:10:28.842Z,55.88
2023-04-18T02:11:28.891Z,57.31
2023-04-18T02:12:28.947Z,56.13
2023-04-18T02:13:28.982Z,55.26
2023-04-18T02:14:29.080Z,56.70
2023-04-18T02:15:29.097Z,56.61
2023-04-18T02:16:29.182Z,57.28
2023-04-18T02:17:29.202Z,57.03
2023-04-18T02:18:29.223Z,57.34
2023-04-18T02:19:29.277Z,58.58
2023-04-18T02:20:29.292Z,56.65
2023-04-18T02:21:29.345Z,54.80
2023-04-18T02:22:29.400Z,56.30
2023-04-18T02:23:29.470Z,54.19
2023-04-18T02:24:29.543Z,55.95
2023-04-18T02:25:29.505Z,56.75
2023-04-18T02:26:29.582Z,55.89
2023-04-18T02:27:29.591Z,55.96
2023-04-18T02:28:29.648Z,57.23
2023-04-18T02:29:29.697Z,55.00
2023-04-18T02:30:29.732Z,56.80
2023-04-18T02:32:18.617Z,25.00
2023-04-18T02:33:18.534Z,25.00
2023-04-18T02:34:18.551Z,25.00
2023-04-18T02:35:18.545Z,25.00
2023-04-18T02:36:18.551Z,25.00
2023-04-18T02:37:18.530Z,25.00
2023-04-18T02:38:18.503Z,27.15
2023-04-18T02:39:18.556Z,25.07
2023-04-18T02:40:18.487Z,26.74
2023-04-18T02:41:18.496Z,27.19
2023-04-18T02:42:18.491Z,26.04
2023-04-18T02:43:18.528Z,26.32
2023-04-18T02:44:18.475Z,25.53
2023-04-18T02:45:18.461Z,25.76
2023-04-18T02:46:18.496Z,29.09
2023-04-18T02:47:18.441Z,26.71
2023-04-18T02:48:18.546Z,26.58
2023-04-18T02:49:18.454Z,25.62
2023-04-18T02:50:18.461Z,28.02
2023-04-18T02:51:18.439Z,27.65
2023-04-18T02:52:18.449Z,26.61
2023-04-18T02:53:18.415Z,29.74
2023-04-18T02:54:18.443Z,27.52
2023-04-18T02:55:18.451Z,28.65
2023-04-18T02:56:18.450Z,29.46
2023-04-18T02:57:18.377Z,26.82
2023-04-18T02:58:18.380Z,26.55
2023-04-18T02:59:18.368Z,29.44
2023-04-18T03:00:18.411Z,26.97
2023-04-18T03:01:18.444Z,25.86
2023-04-18T03:02:18.414Z,25.00
2023-04-18T03:03:18.380Z,25.77
2023-04-18T03:04:18.397Z,28.55
2023-04-18T03:05:18.346Z,26.48
2023-04-18T03:06:18.331Z,27.64
2023-04-18T03:07:18.318Z,27.76
2023-04-18T03:08:18.325Z,27.43
2023-04-18T03:09:18.312Z,28.23
2023-04-18T03:10:18.316Z,25.54
2023-04-18T03:11:18.326Z,26.27
2023-04-18T03:12:18.353Z,26.45
2023-04-18T03:13:18.281Z,28.62
2023-04-18T03:14:18.287Z,26.73
2023-04-18T03:15:18.265Z,29.34
2023-04-18T03:16:18.301Z,27.43
2023-04-18T03:17:18.314Z,29.91
2023-04-18T03:18:18.266Z,26.27
2023-04-18T03:19:18.342Z,27.85
2023-04-18T03:20:18.364Z,27.83
2023-04-18T03:21:18.425Z,27.02
2023-04-18T03:22:18.447Z,26.43
2023-04-18T03:23:18.491Z,28.67
2023-04-18T03:24:18.542Z,28.83
2023-04-18T03:25:18.597Z,28.79
2023-04-18T03:26:18.617Z,28.61
2023-04-18T03:27:18.685Z,27.76
2023-04-18T03:28:18.717Z,25.97
2023-04-18T03:29:18.765Z,27.64
2023-04-18T03:30:18.849Z,26.94
2023-04-18T03:31:18.912Z,29.35
2023-04-18T03:32:18.954Z,27.00
2023-04-18T03:33:18.950Z,27.70
2023-04-18T03:34:18.965Z,28.84
2023-04-18T03:35:19.050Z,28.89
2023-04-18T03:36:19.072Z,28.15
2023-04-18T03:37:19.118Z,29.26
2023-04-18T03:38:19.130Z,28.51
2023-04-18T03:39:19.171Z,30.72
2023-04-18T03:40:19.246Z,29.11
2023-04-18T03:41:19.257Z,28.00
2023-04-18T03:42:19.782Z,27.86
2023-04-18T03:43:19.324Z,30.32
2023-04-18T03:44:19.360Z,27.53
2023-04-18T03:45:19.428Z,28.15
2023-04-18T03:46:19.481Z,26.28
2023-04-18T03:47:19.487Z,27.65
2023-04-18T03:48:19.530Z,26.69
2023-04-18T03:49:19.544Z,29.21
2023-04-18T03:50:19.619Z,27.92
2023-04-18T03:51:19.656Z,29.77
2023-04-18T03:52:19.670Z,28.66
2023-04-18T03:53:19.752Z,26.80
2023-04-18T03:54:19.799Z,28.05
2023-04-18T03:55:19.812Z,29.59
2023-04-18T03:56:19.872Z,29.11
2023-04-18T03:57:19.942Z,32.00
2023-04-18T03:58:19.929Z,28.83
2023-04-18T03:59:20.028Z,29.59
2023-04-18T04:00:20.014Z,28.30
2023-04-18T04:01:20.091Z,30.30
2023-04-18T04:02:20.230Z,27.50
2023-04-18T04:03:20.233Z,27.88
2023-04-18T04:04:20.285Z,29.45
2023-04-18T04:05:20.273Z,28.92
2023-04-18T04:06:20.293Z,27.53
2023-04-18T04:07:20.379Z,28.39
2023-04-18T04:08:20.374Z,28.09
2023-04-18T04:09:20.457Z,30.92
2023-04-18T04:10:20.485Z,31.07
2023-04-18T04:11:20.530Z,28.90
2023-04-18T04:12:20.552Z,29.92
2023-04-18T04:13:20.590Z,32.10
2023-04-18T04:14:20.634Z,29.27
2023-04-18T04:15:20.685Z,29.89
2023-04-18T04:16:20.746Z,28.46
2023-04-18T04:17:20.730Z,25.81
2023-04-18T04:18:20.797Z,28.31
2023-04-18T04:19:20.828Z,29.21
2023-04-18T04:20:20.851Z,28.39
2023-04-18T04:21:21.251Z,29.38
2023-04-18T04:22:20.911Z,25.85
2023-04-18T04:23:20.941Z,27.39
2023-04-18T04:24:21.026Z,27.25
2023-04-18T04:25:21.046Z,28.72
2023-04-18T04:26:21.048Z,27.56
2023-04-18T04:27:21.081Z,25.44
2023-04-18T04:28:21.154Z,26.30
2023-04-18T04:29:21.157Z,29.10
2023-04-18T04:30:21.192Z,25.85
2023-04-18T04:31:21.271Z,28.73
2023-04-18T04:32:21.276Z,26.22
2023-04-18T04:33:21.329Z,27.94
2023-04-18T04:34:21.313Z,27.03
2023-04-18T04:35:21.365Z,27.55
2023-04-18T04:36:21.439Z,28.91
2023-04-18T04:37:21.421Z,25.15
2023-04-18T04:38:21.463Z,29.22
2023-04-18T04:39:21.495Z,28.36
2023-04-18T04:40:21.776Z,26.49
2023-04-18T04:41:21.561Z,27.22
2023-04-18T04:42:21.588Z,30.49
2023-04-18T04:43:21.628Z,28.20
2023-04-18T04:44:21.689Z,29.16
2023-04-18T04:45:21.721Z,27.91
2023-04-18T04:46:21.833Z,30.47
2023-04-18T04:47:21.858Z,30.31
2023-04-18T04:48:21.831Z,27.10
2023-04-18T04:49:21.827Z,29.45
2023-04-18T04:50:21.930Z,29.22
2023-04-18T04:51:21.915Z,29.36
2023-04-18T04:52:21.954Z,27.36
2023-04-18T04:53:21.989Z,27.25
2023-04-18T04:54:22.042Z,28.91
2023-04-18T04:55:22.072Z,27.64
2023-04-18T04:56:22.110Z,28.66
2023-04-18T04:57:22.176Z,27.44
2023-04-18T04:58:22.212Z,28.93
2023-04-18T04:59:22.245Z,27.03
2023-04-18T05:00:22.272Z,27.52
2023-04-18T05:01:22.343Z,27.27
2023-04-18T05:02:22.484Z,26.68
2023-04-18T05:03:22.584Z,27.92
2023-04-18T05:04:22.571Z,29.58
2023-04-18T05:05:22.493Z,28.48
2023-04-18T05:06:22.539Z,28.29
2023-04-18T05:07:22.549Z,28.70
2023-04-18T05:08:22.605Z,30.56
2023-04-18T05:09:22.638Z,28.00
2023-04-18T05:10:22.664Z,27.96
2023-04-18T05:11:22.704Z,27.97
2023-04-18T05:12:22.782Z,29.82
2023-04-18T05:13:22.793Z,30.61
2023-04-18T05:14:22.849Z,29.13
2023-04-18T05:15:22.874Z,29.31
2023-04-18T05:16:22.956Z,27.91
2023-04-18T05:17:22.961Z,27.26
2023-04-18T05:18:23.306Z,26.68
2023-04-18T05:19:22.999Z,27.92
2023-04-18T05:20:23.058Z,30.07
2023-04-18T05:21:23.859Z,27.39
2023-04-18T05:22:23.120Z,28.58
2023-04-18T05:23:23.289Z,27.62
2023-04-18T05:24:23.205Z,26.01
2023-04-18T05:25:23.200Z,27.94
2023-04-18T05:26:23.235Z,31.44
2023-04-18T05:27:23.369Z,30.89
2023-04-18T05:28:23.801Z,31.27
2023-04-18T05:29:24.322Z,29.65
2023-04-18T05:30:23.413Z,30.61
2023-04-18T05:31:23.498Z,29.19
2023-04-18T05:32:23.556Z,29.85
2023-04-18T05:33:23.608Z,29.03
2023-04-18T05:34:23.512Z,31.23
2023-04-18T05:35:23.620Z,43.18
2023-04-18T05:36:23.574Z,26.32
2023-04-18T05:37:23.632Z,40.05
2023-04-18T05:38:23.632Z,35.48
2023-04-18T05:39:23.670Z,46.43
2023-04-18T05:40:23.835Z,48.43
2023-04-18T05:41:23.648Z,51.43
2023-04-18T05:42:23.683Z,46.99
2023-04-18T05:43:23.808Z,52.96
2023-04-18T05:44:23.764Z,53.82
2023-04-18T05:45:24.381Z,53.80
2023-04-18T05:46:23.889Z,62.69
2023-04-18T05:47:23.967Z,69.04
2023-04-18T05:48:23.962Z,69.96
2023-04-18T05:49:23.962Z,63.23
2023-04-18T05:50:24.386Z,76.31
2023-04-18T05:51:24.046Z,78.69
2023-04-18T05:52:24.084Z,75.91
2023-04-18T05:53:24.334Z,78.50
2023-04-18T05:54:24.064Z,81.45
2023-04-18T05:55:24.090Z,84.00
2023-04-18T05:56:24.041Z,77.11
2023-04-18T05:57:24.051Z,78.36
2023-04-18T05:58:24.113Z,81.65
2023-04-18T05:59:24.224Z,78.57
2023-04-18T06:00:24.188Z,81.34
2023-04-18T06:01:24.865Z,77.97
2023-04-18T06:02:24.314Z,83.33
2023-04-18T06:03:25.018Z,87.71
2023-04-18T06:04:24.321Z,84.45
2023-04-18T06:05:24.448Z,84.79
2023-04-18T06:06:24.334Z,90.48
2023-04-18T06:07:24.350Z,85.47
2023-04-18T06:08:24.426Z,82.98
2023-04-18T06:09:24.484Z,80.83
2023-04-18T06:10:25.326Z,78.80
2023-04-18T06:11:24.636Z,80.05
2023-04-18T06:12:24.648Z,79.09
2023-04-18T06:13:24.722Z,73.28
2023-04-18T06:14:24.790Z,73.85
2023-04-18T06:15:24.848Z,76.66
2023-04-18T06:16:24.973Z,77.34
2023-04-18T06:17:24.994Z,75.82
2023-04-18T06:18:24.974Z,66.46
2023-04-18T06:19:25.036Z,68.53
2023-04-18T06:20:25.043Z,67.00
2023-04-18T06:21:25.082Z,67.93
2023-04-18T06:22:25.151Z,69.30
2023-04-18T06:23:25.245Z,95.34
2023-04-18T06:24:25.300Z,117.91
2023-04-18T06:25:25.328Z,118.71
2023-04-18T06:26:25.295Z,116.94
2023-04-18T06:27:31.656Z,109.28
2023-04-18T06:28:26.313Z,109.58
2023-04-18T06:29:25.296Z,110.47
2023-04-18T06:30:25.301Z,104.35
2023-04-18T06:31:25.338Z,94.03
2023-04-18T06:32:25.323Z,90.78
2023-04-18T06:33:25.344Z,79.91
2023-04-18T06:34:25.279Z,79.32
2023-04-18T06:35:26.745Z,72.93
2023-04-18T06:36:25.864Z,72.49
2023-04-18T06:37:25.265Z,68.37
2023-04-18T06:38:25.360Z,61.62
2023-04-18T06:39:25.239Z,56.40
2023-04-18T06:40:25.357Z,50.73
2023-04-18T06:41:25.382Z,52.58
2023-04-18T06:42:25.290Z,47.17
2023-04-18T06:43:25.263Z,48.33
2023-04-18T06:44:25.272Z,48.36
2023-04-18T06:45:25.419Z,51.47
2023-04-18T06:46:27.907Z,53.40
2023-04-18T06:47:25.644Z,55.41
2023-04-18T06:48:25.518Z,52.36
2023-04-18T06:49:26.721Z,55.08
2023-04-18T06:50:25.922Z,57.12
2023-04-18T06:51:25.580Z,55.48
2023-04-18T06:52:25.556Z,61.28
2023-04-18T06:53:25.573Z,54.65
2023-04-18T06:54:25.569Z,53.09
2023-04-18T06:55:25.598Z,54.05
2023-04-18T06:56:25.599Z,52.35
2023-04-18T06:57:26.334Z,51.67
2023-04-18T06:58:25.607Z,60.98
2023-04-18T06:59:25.607Z,70.75
2023-04-18T07:00:25.837Z,48.87
2023-04-18T07:01:25.656Z,46.23
2023-04-18T07:02:25.705Z,46.67
2023-04-18T07:03:25.888Z,52.00
2023-04-18T07:04:25.822Z,50.73
2023-04-18T07:05:26.342Z,53.91
2023-04-18T07:06:25.589Z,57.21
2023-04-18T07:07:25.608Z,53.57
2023-04-18T07:08:25.581Z,52.32
2023-04-18T07:09:25.590Z,48.94
2023-04-18T07:10:25.584Z,49.29
2023-04-18T07:11:25.584Z,50.74
2023-04-18T07:12:25.593Z,53.97
2023-04-18T07:13:26.428Z,51.37
2023-04-18T07:14:25.577Z,50.68
2023-04-18T07:15:25.572Z,55.04
2023-04-18T07:16:25.661Z,58.37
2023-04-18T07:17:25.651Z,45.05
2023-04-18T07:18:36.694Z,45.58
2023-04-18T07:19:26.595Z,46.09
2023-04-18T07:20:25.622Z,47.23
2023-04-18T07:21:26.324Z,48.15
2023-04-18T07:22:25.645Z,50.01
2023-04-18T07:23:25.566Z,53.40
2023-04-18T07:24:25.558Z,47.67
2023-04-18T07:25:25.574Z,53.60
2023-04-18T07:26:25.549Z,49.23
2023-04-18T07:27:25.541Z,48.33
2023-04-18T07:28:25.565Z,53.65
2023-04-18T07:29:25.678Z,50.18
2023-04-18T07:30:25.722Z,50.08
2023-04-18T07:31:25.888Z,49.62
2023-04-18T07:32:25.884Z,45.97
2023-04-18T07:33:25.999Z,47.92
2023-04-18T07:34:26.876Z,43.87
2023-04-18T07:35:26.021Z,48.14
2023-04-18T07:36:26.088Z,47.21
2023-04-18T07:37:26.181Z,49.92
2023-04-18T07:38:26.218Z,51.32
2023-04-18T07:39:26.418Z,57.88
2023-04-18T07:40:26.355Z,59.23
2023-04-18T07:41:26.477Z,61.00
2023-04-18T07:42:26.439Z,65.92
2023-04-18T07:43:26.507Z,78.74
2023-04-18T07:44:26.523Z,83.44
2023-04-18T07:45:26.883Z,87.46
2023-04-18T07:46:26.708Z,89.65
2023-04-18T07:47:27.612Z,101.05
2023-04-18T07:48:26.676Z,115.22
2023-04-18T07:49:26.638Z,117.40
2023-04-18T07:50:26.771Z,110.89
2023-04-18T07:51:26.712Z,121.18
2023-04-18T07:52:26.953Z,116.82
2023-04-18T07:53:26.705Z,118.59
2023-04-18T07:54:26.606Z,115.13
2023-04-18T07:55:26.903Z,121.53
2023-04-18T07:56:26.617Z,120.84
2023-04-18T07:57:26.586Z,118.26
2023-04-18T07:58:26.657Z,113.55
2023-04-18T07:59:26.851Z,114.01
2023-04-18T08:00:27.469Z,111.86
2023-04-18T08:01:27.375Z,113.93
2023-04-18T08:02:26.780Z,115.97
2023-04-18T08:03:26.797Z,116.61
2023-04-18T08:04:29.762Z,115.28
2023-04-18T08:05:26.890Z,115.57
2023-04-18T08:06:26.641Z,115.81
2023-04-18T08:07:26.568Z,118.35
2023-04-18T08:08:26.672Z,121.76
2023-04-18T08:09:26.558Z,129.81
2023-04-18T08:10:26.527Z,133.08
2023-04-18T08:11:26.510Z,127.83
2023-04-18T08:12:26.502Z,135.11
2023-04-18T08:13:26.508Z,138.29
2023-04-18T08:14:26.491Z,142.27
2023-04-18T08:15:26.512Z,146.24
2023-04-18T08:16:26.553Z,147.92
2023-04-18T08:17:26.521Z,151.67
2023-04-18T08:18:26.482Z,158.02
2023-04-18T08:19:26.447Z,158.74
2023-04-18T08:20:26.590Z,160.59
2023-04-18T08:21:26.470Z,164.94
2023-04-18T08:22:26.555Z,165.58
2023-04-18T08:23:26.585Z,168.16
2023-04-18T08:24:26.985Z,116.01
2023-04-18T08:25:26.863Z,22.34
2023-04-18T08:26:26.984Z,48.19
2023-04-18T08:27:26.435Z,23.78
2023-04-18T08:28:26.396Z,0.00
2023-04-18T08:29:26.412Z,22.78
2023-04-18T08:30:26.421Z,39.67
2023-04-18T08:31:26.607Z,48.97
2023-04-18T08:32:26.433Z,50.59
2023-04-18T08:33:26.502Z,43.13
2023-04-18T08:34:26.959Z,37.15
2023-04-18T08:35:26.358Z,17.25
2023-04-18T08:36:26.366Z,13.34
2023-04-18T08:37:26.360Z,52.21
2023-04-18T08:38:26.375Z,75.15
2023-04-18T08:39:26.362Z,95.40
2023-04-18T08:40:26.594Z,97.48
2023-04-18T08:41:26.536Z,101.08
2023-04-18T08:42:26.357Z,101.20
2023-04-18T08:43:26.305Z,100.77
2023-04-18T08:44:26.358Z,101.56
2023-04-18T08:45:26.335Z,96.62
2023-04-18T08:46:27.017Z,94.19
2023-04-18T08:47:26.302Z,100.17
2023-04-18T08:48:26.286Z,100.83
2023-04-18T08:49:26.390Z,102.64
2023-04-18T08:50:26.358Z,101.65
2023-04-18T08:51:26.884Z,106.19
2023-04-18T08:52:26.458Z,108.91
2023-04-18T08:53:26.492Z,112.37
2023-04-18T08:54:27.386Z,113.24
2023-04-18T08:55:26.911Z,115.28
2023-04-18T08:56:27.136Z,120.37
2023-04-18T08:57:26.725Z,118.86
2023-04-18T08:58:26.646Z,124.55
2023-04-18T08:59:26.675Z,125.69
2023-04-18T09:00:26.893Z,129.85
2023-04-18T09:01:26.843Z,132.86
2023-04-18T09:02:26.877Z,132.60
2023-04-18T09:03:26.788Z,133.43
2023-04-18T09:04:26.903Z,134.12
2023-04-18T09:05:26.970Z,139.41
2023-04-18T09:06:27.932Z,141.20
2023-04-18T09:07:26.746Z,141.19
2023-04-18T09:08:26.824Z,143.55
2023-04-18T09:09:26.743Z,143.71
2023-04-18T09:10:26.764Z,142.40
2023-04-18T09:11:26.748Z,143.63
2023-04-18T09:12:26.816Z,144.30
2023-04-18T09:13:26.821Z,143.78
2023-04-18T09:14:26.746Z,148.68
2023-04-18T09:15:26.750Z,149.75
2023-04-18T09:16:26.776Z,151.11
2023-04-18T09:17:26.790Z,154.34
2023-04-18T09:18:26.766Z,154.31
2023-04-18T09:19:27.466Z,153.73
2023-04-18T09:20:26.925Z,153.00
2023-04-18T09:21:26.881Z,153.58
2023-04-18T09:22:26.902Z,148.26
2023-04-18T09:23:26.868Z,147.67
2023-04-18T09:24:26.848Z,149.90
2023-04-18T09:25:26.927Z,151.75
2023-04-18T09:26:26.912Z,155.93
2023-04-18T09:27:27.006Z,162.29
2023-04-18T09:28:27.163Z,169.28
2023-04-18T09:29:27.161Z,174.78
2023-04-18T09:30:27.135Z,172.16
2023-04-18T09:31:27.322Z,173.65
2023-04-18T09:32:27.480Z,174.22
2023-04-18T09:33:27.332Z,171.25
2023-04-18T09:34:27.402Z,148.91
2023-04-18T09:35:27.965Z,39.58
2023-04-18T09:36:27.655Z,0.00
2023-04-18T09:37:27.484Z,0.00
2023-04-18T09:38:27.680Z,0.00
2023-04-18T09:39:27.492Z,36.36
2023-04-18T09:40:27.492Z,38.07
2023-04-18T09:41:27.566Z,50.13
2023-04-18T09:42:28.926Z,54.66
2023-04-18T09:43:27.522Z,67.72
2023-04-18T09:44:27.714Z,75.07
2023-04-18T09:45:27.562Z,76.14
2023-04-18T09:46:27.647Z,93.53
2023-04-18T09:47:27.627Z,108.22
2023-04-18T09:48:27.605Z,103.43
2023-04-18T09:49:28.428Z,119.19
2023-04-18T09:50:27.908Z,108.83
2023-04-18T09:51:28.496Z,10.44
2023-04-18T09:52:28.399Z,7.48
2023-04-18T09:53:27.799Z,50.48
2023-04-18T09:54:27.794Z,72.12
2023-04-18T09:55:27.891Z,90.66
2023-04-18T09:56:27.973Z,94.83
2023-04-18T09:57:27.826Z,121.17
2023-04-18T09:58:27.875Z,130.89
2023-04-18T09:59:27.897Z,133.34
2023-04-18T10:00:27.967Z,141.56
2023-04-18T10:01:27.980Z,143.74
2023-04-18T10:02:28.107Z,158.93
2023-04-18T10:03:28.178Z,160.57
2023-04-18T10:04:28.171Z,163.87
2023-04-18T10:05:28.234Z,172.16
2023-04-18T10:06:28.275Z,179.46
2023-04-18T10:07:28.329Z,175.13
2023-04-18T10:08:28.361Z,180.77
2023-04-18T10:09:28.465Z,187.86
2023-04-18T10:10:28.448Z,187.75
2023-04-18T10:11:28.520Z,189.71
2023-04-18T10:12:28.611Z,190.71
2023-04-18T10:13:28.594Z,191.08
2023-04-18T10:14:28.665Z,192.69
2023-04-18T10:15:28.955Z,194.08
2023-04-18T10:16:28.756Z,195.16
2023-04-18T10:17:29.680Z,161.32
2023-04-18T10:18:28.526Z,181.74
2023-04-18T10:19:28.590Z,180.38
2023-04-18T10:20:29.556Z,189.66
2023-04-18T10:21:28.479Z,192.08
2023-04-18T10:22:28.606Z,191.80
2023-04-18T10:23:28.548Z,190.96
2023-04-18T10:24:28.726Z,194.01
2023-04-18T10:25:28.622Z,194.34
2023-04-18T10:26:29.079Z,177.72
2023-04-18T10:27:31.438Z,163.57
2023-04-18T10:28:28.834Z,169.33
2023-04-18T10:29:28.748Z,156.87
2023-04-18T10:30:28.736Z,154.75
2023-04-18T10:31:29.537Z,176.37
2023-04-18T10:32:28.704Z,193.56
2023-04-18T10:33:31.000Z,195.40
2023-04-18T10:34:28.701Z,195.93
2023-04-18T10:35:28.670Z,198.25
2023-04-18T10:36:28.948Z,202.74
2023-04-18T10:37:28.618Z,212.33
2023-04-18T10:38:28.695Z,187.92
2023-04-18T10:39:28.605Z,178.54
2023-04-18T10:40:28.598Z,196.30
2023-04-18T10:41:28.589Z,191.62
2023-04-18T10:42:28.619Z,193.21
2023-04-18T10:43:28.588Z,200.53
2023-04-18T10:44:28.596Z,206.09
2023-04-18T10:45:28.593Z,199.08
2023-04-18T10:46:32.582Z,212.21
2023-04-18T10:47:28.681Z,212.88
2023-04-18T10:48:28.553Z,214.00
2023-04-18T10:49:31.040Z,219.17
2023-04-18T10:50:28.564Z,213.33
2023-04-18T10:51:28.555Z,216.84
2023-04-18T10:52:28.532Z,222.53
2023-04-18T10:53:28.516Z,231.58
2023-04-18T10:54:28.562Z,251.11
2023-04-18T10:55:28.542Z,250.00
2023-04-18T10:56:28.595Z,249.36
2023-04-18T10:57:28.495Z,249.09
2023-04-18T10:58:28.510Z,250.00
2023-04-18T10:59:28.518Z,249.93
2023-04-18T11:00:28.552Z,250.00
2023-04-18T11:01:32.125Z,249.74
2023-04-18T11:02:28.619Z,250.16
2023-04-18T11:03:28.551Z,250.95
2023-04-18T11:04:28.666Z,251.12
2023-04-18T11:05:28.620Z,252.07
2023-04-18T11:06:28.597Z,255.78
2023-04-18T11:07:29.975Z,249.96
2023-04-18T11:08:28.489Z,248.49
2023-04-18T11:09:28.535Z,248.60
2023-04-18T11:10:28.540Z,249.08
2023-04-18T11:11:28.523Z,248.02
2023-04-18T11:12:28.484Z,247.43
2023-04-18T11:13:28.392Z,246.82
2023-04-18T11:14:28.389Z,247.68
2023-04-18T11:15:30.393Z,247.59
2023-04-18T11:16:28.638Z,242.65
2023-04-18T11:17:28.601Z,236.75
2023-04-18T11:18:28.579Z,236.49
2023-04-18T11:19:28.630Z,238.98
2023-04-18T11:20:28.620Z,238.64
2023-04-18T11:21:30.439Z,240.58
2023-04-18T11:22:28.954Z,242.19
2023-04-18T11:23:30.428Z,240.16
2023-04-18T11:24:28.638Z,241.13
2023-04-18T11:25:28.781Z,237.72
2023-04-18T11:26:28.642Z,239.54
2023-04-18T11:27:28.974Z,241.65
2023-04-18T11:28:28.689Z,238.63
2023-04-18T11:29:28.685Z,241.10
2023-04-18T11:30:28.706Z,241.15
2023-04-18T11:31:28.788Z,242.37
2023-04-18T11:32:28.839Z,240.57
2023-04-18T11:33:28.779Z,240.45
2023-04-18T11:34:28.842Z,242.61
2023-04-18T11:35:28.835Z,241.88
2023-04-18T11:36:28.871Z,241.03
2023-04-18T11:37:28.929Z,239.93
2023-04-18T11:38:28.926Z,241.20
2023-04-18T11:39:28.954Z,240.50
2023-04-18T11:40:28.980Z,242.99
2023-04-18T11:41:29.062Z,240.83
2023-04-18T11:42:29.071Z,242.76
2023-04-18T11:43:29.094Z,240.36
2023-04-18T11:44:29.129Z,243.55
2023-04-18T11:45:29.156Z,238.45
2023-04-18T11:46:29.263Z,237.51
2023-04-18T11:47:29.252Z,240.42
2023-04-18T11:48:29.250Z,241.75
2023-04-18T11:49:29.321Z,241.59
2023-04-18T11:50:29.426Z,241.16
2023-04-18T11:51:29.346Z,241.14
2023-04-18T11:52:29.410Z,242.14
2023-04-18T11:53:29.419Z,239.53
2023-04-18T11:54:29.527Z,241.58
2023-04-18T11:55:29.486Z,240.34
2023-04-18T11:56:29.518Z,240.62
2023-04-18T11:57:29.566Z,240.96
2023-04-18T11:58:29.578Z,241.44
2023-04-18T11:59:29.594Z,240.68
2023-04-18T12:00:29.639Z,243.19
2023-04-18T12:01:29.670Z,239.54
2023-04-18T12:02:29.828Z,241.51
2023-04-18T12:03:29.922Z,239.39
2023-04-18T12:04:30.059Z,240.49
2023-04-18T12:05:30.093Z,237.85
2023-04-18T12:06:29.911Z,237.26
2023-04-18T12:07:29.923Z,239.37
2023-04-18T12:08:29.937Z,239.81
2023-04-18T12:09:29.968Z,237.47
2023-04-18T12:10:29.976Z,238.59
2023-04-18T12:11:30.012Z,238.76
2023-04-18T12:12:30.605Z,238.07
2023-04-18T12:13:30.092Z,239.09
2023-04-18T12:14:30.117Z,237.93
2023-04-18T12:15:30.157Z,237.83
2023-04-18T12:16:30.254Z,237.00
2023-04-18T12:17:30.282Z,239.14
2023-04-18T12:18:30.308Z,238.08
2023-04-18T12:19:30.371Z,235.50
2023-04-18T12:20:30.325Z,236.66
2023-04-18T12:21:30.430Z,236.16
2023-04-18T12:22:30.483Z,236.29
2023-04-18T12:23:30.476Z,236.88
2023-04-18T12:24:30.563Z,236.91
2023-04-18T12:25:30.628Z,237.91
2023-04-18T12:26:30.603Z,237.21
2023-04-18T12:27:30.989Z,236.38
2023-04-18T12:28:30.703Z,237.84
2023-04-18T12:29:31.470Z,239.00
2023-04-18T12:30:30.791Z,237.31
2023-04-18T12:31:30.851Z,238.75
2023-04-18T12:32:31.037Z,238.26
2023-04-18T12:33:30.870Z,237.79
2023-04-18T12:34:30.926Z,240.05
2023-04-18T12:35:30.975Z,239.46
2023-04-18T12:36:33.990Z,240.23
2023-04-18T12:37:31.456Z,239.99
2023-04-18T12:38:31.014Z,237.46
2023-04-18T12:39:31.001Z,236.46
2023-04-18T12:40:30.993Z,236.81
2023-04-18T12:41:31.025Z,235.96
2023-04-18T12:42:31.482Z,236.74
2023-04-18T12:43:30.950Z,236.75
2023-04-18T12:44:30.941Z,236.47
2023-04-18T12:45:30.961Z,235.66